Time;durP1;ratioP1;P1;durP2;ratioP2;P2;SDS_P1;SDS_P2;PMS_P1;PMS_P2;Temp;Humidity;BMP_temperature;BMP_pressure;BME280_temperature;BME280_humidity;BME280_pressure;Samples;Min_cycle;Max_cycle;Signal;HPM_P1;HPM_P2
2020/12/17 00:02:21;;;;;;;8.40;4.17;;;;;;;;;;5012133;28;20029;-67
2020/12/17 00:04:46;;;;;;;10.87;4.30;;;;;;;;;;5012773;28;20355;-67
2020/12/17 00:07:12;;;;;;;10.03;4.47;;;;;;;;;;5011836;28;20252;-67
2020/12/17 00:09:37;;;;;;;12.10;4.72;;;;;;;;;;5016133;28;20364;-67
2020/12/17 00:12:02;;;;;;;10.88;4.22;;;;;;;;;;5009532;28;20022;-67
2020/12/17 00:14:27;;;;;;;8.18;4.30;;;;;;;;;;5011112;28;20406;-67
2020/12/17 00:16:52;;;;;;;9.60;4.93;;;;;;;;;;5011926;28;20045;-67
2020/12/17 00:19:17;;;;;;;10.37;4.33;;;;;;;;;;5010451;28;20265;-67
2020/12/17 00:21:43;;;;;;;9.13;4.87;;;;;;;;;;5011838;28;20273;-67
2020/12/17 00:24:08;;;;;;;8.20;4.30;;;;;;;;;;5011565;28;20372;-67
2020/12/17 00:26:33;;;;;;;9.48;5.10;;;;;;;;;;5011830;28;20010;-67
2020/12/17 00:28:58;;;;;;;12.15;4.82;;;;;;;;;;5010557;28;20026;-67
2020/12/17 00:31:23;;;;;;;9.80;4.50;;;;;;;;;;5014437;28;20018;-67
2020/12/17 00:33:49;;;;;;;8.63;5.13;;;;;;;;;;5011424;28;20087;-67
2020/12/17 00:36:17;;;;;;;8.52;3.97;;;;;;;;;;5011689;28;20687;-67
2020/12/17 00:38:43;;;;;;;7.53;4.38;;;;;;;;;;4994238;28;20037;-67
2020/12/17 00:41:10;;;;;;;9.07;4.07;;;;;;;;;;5014840;28;20033;-67
2020/12/17 00:43:35;;;;;;;9.85;3.75;;;;;;;;;;5010974;28;20022;-67
2020/12/17 00:46:01;;;;;;;7.57;4.57;;;;;;;;;;5008344;28;20025;-67
2020/12/17 00:48:26;;;;;;;5.72;2.90;;;;;;;;;;5011488;28;20689;-67
2020/12/17 00:50:51;;;;;;;6.57;3.33;;;;;;;;;;5011769;28;20049;-67
2020/12/17 00:53:16;;;;;;;11.63;4.53;;;;;;;;;;5010354;28;20268;-67
2020/12/17 00:55:41;;;;;;;6.33;3.43;;;;;;;;;;5010657;28;20272;-67
2020/12/17 00:58:06;;;;;;;8.30;3.13;;;;;;;;;;5012180;28;20287;-67
2020/12/17 01:00:32;;;;;;;6.37;3.20;;;;;;;;;;5010667;28;20030;-67
2020/12/17 01:02:57;;;;;;;8.43;4.40;;;;;;;;;;5011182;28;20292;-67
2020/12/17 01:05:22;;;;;;;9.43;4.87;;;;;;;;;;5012267;28;20113;-67
2020/12/17 01:07:47;;;;;;;7.10;4.80;;;;;;;;;;5011076;28;21159;-67
2020/12/17 01:10:12;;;;;;;10.00;2.97;;;;;;;;;;5010507;28;20260;-67
2020/12/17 01:12:39;;;;;;;9.20;2.50;;;;;;;;;;5014811;28;20787;-67
2020/12/17 01:15:04;;;;;;;6.22;3.30;;;;;;;;;;5011369;28;20307;-67
2020/12/17 01:17:29;;;;;;;7.10;2.80;;;;;;;;;;5010682;28;20018;-67
2020/12/17 01:19:55;;;;;;;5.83;3.33;;;;;;;;;;5010060;28;20283;-67
2020/12/17 01:22:20;;;;;;;8.70;3.40;;;;;;;;;;5010770;28;20257;-67
2020/12/17 01:24:45;;;;;;;11.23;2.83;;;;;;;;;;5010469;28;20512;-67
2020/12/17 01:27:10;;;;;;;5.57;2.83;;;;;;;;;;5013157;28;20029;-67
2020/12/17 01:29:35;;;;;;;6.87;3.57;;;;;;;;;;5011038;28;20258;-67
2020/12/17 01:32:01;;;;;;;7.27;3.70;;;;;;;;;;5005655;28;20272;-67
2020/12/17 01:34:26;;;;;;;8.77;2.95;;;;;;;;;;5010810;28;20256;-67
2020/12/17 01:36:51;;;;;;;6.25;2.85;;;;;;;;;;5010571;28;20470;-67
2020/12/17 01:39:17;;;;;;;2.75;2.08;;;;;;;;;;5004620;28;20559;-67
2020/12/17 01:41:42;;;;;;;7.20;4.18;;;;;;;;;;5011112;28;20513;-67
2020/12/17 01:44:07;;;;;;;8.80;2.17;;;;;;;;;;5010576;28;20032;-67
2020/12/17 01:46:32;;;;;;;7.68;2.00;;;;;;;;;;5011565;28;20630;-67
2020/12/17 01:49:00;;;;;;;6.47;2.50;;;;;;;;;;5044488;22;20309;-65
2020/12/17 01:51:26;;;;;;;7.13;3.83;;;;;;;;;;5010782;28;20368;-65
2020/12/17 01:53:53;;;;;;;8.02;3.28;;;;;;;;;;5012164;28;20567;-65
2020/12/17 01:56:22;;;;;;;5.97;3.53;;;;;;;;;;5004529;28;20433;-65
2020/12/17 01:58:52;;;;;;;9.48;2.88;;;;;;;;;;4991050;28;20102;-64
2020/12/17 02:01:18;;;;;;;10.52;3.63;;;;;;;;;;5017285;28;20120;-65
2020/12/17 02:03:43;;;;;;;12.10;4.63;;;;;;;;;;5010316;28;20105;-65
2020/12/17 02:06:09;;;;;;;7.95;3.78;;;;;;;;;;5009139;28;20496;-65
2020/12/17 02:08:38;;;;;;;6.20;3.70;;;;;;;;;;5009654;28;20385;-65
2020/12/17 02:11:07;;;;;;;4.07;2.10;;;;;;;;;;5009393;28;20021;-65
2020/12/17 02:13:33;;;;;;;4.80;2.00;;;;;;;;;;5011085;28;20037;-65
2020/12/17 02:15:58;;;;;;;8.23;3.25;;;;;;;;;;5009864;28;20042;-68
2020/12/17 02:18:23;;;;;;;8.40;3.83;;;;;;;;;;5009897;28;20044;-65
2020/12/17 02:20:49;;;;;;;9.95;4.60;;;;;;;;;;5011551;28;20061;-65
2020/12/17 02:23:14;;;;;;;12.57;4.00;;;;;;;;;;5015042;28;20060;-64
2020/12/17 02:25:39;;;;;;;8.57;3.70;;;;;;;;;;5009907;28;20602;-65
2020/12/17 02:28:04;;;;;;;5.68;2.75;;;;;;;;;;5011361;28;20272;-65
2020/12/17 02:30:29;;;;;;;4.38;2.40;;;;;;;;;;5009314;28;20137;-64
2020/12/17 02:32:54;;;;;;;4.68;2.50;;;;;;;;;;5009566;28;20053;-65
2020/12/17 02:35:20;;;;;;;3.57;1.87;;;;;;;;;;5009841;28;20018;-65
2020/12/17 02:37:45;;;;;;;6.37;2.43;;;;;;;;;;5008894;28;20745;-65
2020/12/17 02:40:10;;;;;;;9.00;2.83;;;;;;;;;;5010207;28;20260;-65
2020/12/17 02:42:35;;;;;;;10.60;3.03;;;;;;;;;;5010525;28;20840;-65
2020/12/17 02:45:00;;;;;;;3.47;2.13;;;;;;;;;;5009533;28;20026;-65
2020/12/17 02:47:25;;;;;;;5.55;2.80;;;;;;;;;;5009464;28;20772;-65
2020/12/17 02:49:51;;;;;;;5.63;2.40;;;;;;;;;;5013298;28;20030;-66
2020/12/17 02:52:16;;;;;;;7.63;2.93;;;;;;;;;;5009804;28;20025;-66
2020/12/17 02:54:41;;;;;;;3.93;2.13;;;;;;;;;;5009160;28;20304;-66
2020/12/17 02:57:06;;;;;;;6.20;2.58;;;;;;;;;;5012353;28;20269;-66
2020/12/17 02:59:31;;;;;;;5.53;2.00;;;;;;;;;;5009559;28;20047;-66
2020/12/17 03:01:56;;;;;;;7.33;3.67;;;;;;;;;;5010906;28;20352;-65
2020/12/17 03:04:22;;;;;;;4.67;1.70;;;;;;;;;;5009975;28;20292;-66
2020/12/17 03:06:47;;;;;;;8.17;3.30;;;;;;;;;;5008782;28;20293;-65
2020/12/17 03:09:12;;;;;;;5.73;3.50;;;;;;;;;;5010327;28;20264;-66
2020/12/17 03:11:37;;;;;;;12.95;3.13;;;;;;;;;;5012623;28;20273;-66
2020/12/17 03:14:02;;;;;;;10.40;3.73;;;;;;;;;;5012842;28;20046;-66
2020/12/17 03:16:28;;;;;;;7.17;4.20;;;;;;;;;;5012825;28;20422;-66
2020/12/17 03:18:55;;;;;;;6.38;3.47;;;;;;;;;;5012518;28;20264;-66
2020/12/17 03:21:21;;;;;;;7.82;2.63;;;;;;;;;;5011969;28;20084;-66
2020/12/17 03:23:46;;;;;;;6.45;3.33;;;;;;;;;;5013814;28;20477;-66
2020/12/17 03:26:11;;;;;;;7.07;3.20;;;;;;;;;;5016433;28;20161;-66
2020/12/17 03:28:36;;;;;;;6.60;3.47;;;;;;;;;;5012533;28;20351;-66
2020/12/17 03:31:01;;;;;;;10.10;4.00;;;;;;;;;;5014198;28;20273;-66
2020/12/17 03:33:27;;;;;;;6.47;2.87;;;;;;;;;;5012947;28;20903;-66
2020/12/17 03:35:52;;;;;;;6.68;3.28;;;;;;;;;;5013527;28;20277;-65
2020/12/17 03:38:17;;;;;;;4.18;2.10;;;;;;;;;;5017245;28;20029;-66
2020/12/17 03:40:42;;;;;;;6.88;3.42;;;;;;;;;;5013093;28;20140;-66
2020/12/17 03:43:08;;;;;;;4.15;2.42;;;;;;;;;;5015812;28;20048;-66
2020/12/17 03:45:33;;;;;;;7.97;3.22;;;;;;;;;;5019250;28;20041;-66
2020/12/17 03:47:58;;;;;;;8.10;3.38;;;;;;;;;;5012783;28;20065;-66
2020/12/17 03:50:23;;;;;;;5.35;2.97;;;;;;;;;;5016827;28;20061;-66
2020/12/17 03:52:48;;;;;;;5.20;3.23;;;;;;;;;;5016742;28;20632;-65
2020/12/17 03:55:14;;;;;;;5.80;2.65;;;;;;;;;;5012535;28;20359;-66
2020/12/17 03:57:39;;;;;;;3.97;2.40;;;;;;;;;;5012259;28;20101;-65
2020/12/17 04:00:05;;;;;;;7.32;3.45;;;;;;;;;;5011505;28;20136;-66
2020/12/17 04:02:30;;;;;;;5.18;2.28;;;;;;;;;;5012200;28;20462;-66
2020/12/17 04:04:55;;;;;;;5.88;2.28;;;;;;;;;;5011130;28;20033;-66
2020/12/17 04:07:20;;;;;;;6.83;3.20;;;;;;;;;;5015201;28;20021;-66
2020/12/17 04:09:45;;;;;;;7.50;3.53;;;;;;;;;;4998183;28;20336;-66
2020/12/17 04:12:11;;;;;;;7.50;3.43;;;;;;;;;;5011765;28;20264;-66
2020/12/17 04:14:36;;;;;;;5.10;3.20;;;;;;;;;;5011480;28;20335;-66
2020/12/17 04:17:02;;;;;;;8.27;3.33;;;;;;;;;;5010674;28;20026;-66
2020/12/17 04:19:27;;;;;;;6.15;2.88;;;;;;;;;;5010008;28;20105;-66
2020/12/17 04:21:52;;;;;;;6.77;3.40;;;;;;;;;;5013158;28;20149;-66
2020/12/17 04:24:18;;;;;;;6.32;2.05;;;;;;;;;;5011473;28;20768;-67
2020/12/17 04:26:52;;;;;;;4.63;2.17;;;;;;;;;;5012740;28;20026;-66
2020/12/17 04:29:18;;;;;;;13.85;3.95;;;;;;;;;;5010659;28;20633;-66
2020/12/17 04:31:43;;;;;;;6.88;3.42;;;;;;;;;;5010933;28;20021;-66
2020/12/17 04:34:08;;;;;;;4.10;1.90;;;;;;;;;;5011784;28;20550;-65
2020/12/17 04:36:33;;;;;;;5.80;3.72;;;;;;;;;;5015239;28;20034;-66
2020/12/17 04:38:58;;;;;;;7.35;2.65;;;;;;;;;;5012528;28;20021;-66
2020/12/17 04:41:24;;;;;;;7.07;3.25;;;;;;;;;;5011098;28;20062;-66
2020/12/17 04:43:50;;;;;;;12.30;3.65;;;;;;;;;;5011267;28;20036;-66
2020/12/17 04:46:17;;;;;;;9.18;4.05;;;;;;;;;;5010909;28;20050;-66
2020/12/17 04:48:45;;;;;;;5.32;3.38;;;;;;;;;;5010930;28;20048;-66
2020/12/17 04:51:10;;;;;;;9.55;3.00;;;;;;;;;;5012273;28;20026;-66
2020/12/17 04:53:36;;;;;;;7.20;2.13;;;;;;;;;;5010571;28;20068;-66
2020/12/17 04:56:02;;;;;;;5.38;1.98;;;;;;;;;;5011155;28;20029;-66
2020/12/17 04:58:27;;;;;;;4.65;1.95;;;;;;;;;;5010708;28;20018;-66
2020/12/17 05:00:54;;;;;;;2.92;1.75;;;;;;;;;;5013166;28;20474;-66
2020/12/17 05:03:20;;;;;;;4.93;1.92;;;;;;;;;;5011639;28;20455;-66
2020/12/17 05:05:45;;;;;;;5.80;2.75;;;;;;;;;;5010903;28;20022;-66
2020/12/17 05:08:11;;;;;;;8.30;2.92;;;;;;;;;;5011116;28;20033;-66
2020/12/17 05:10:36;;;;;;;4.88;2.58;;;;;;;;;;5010131;28;20010;-66
2020/12/17 05:13:01;;;;;;;7.70;3.10;;;;;;;;;;4993168;28;20528;-66
2020/12/17 05:15:26;;;;;;;8.27;3.08;;;;;;;;;;5010936;28;20052;-66
2020/12/17 05:17:54;;;;;;;10.68;3.40;;;;;;;;;;5014394;28;20037;-66
2020/12/17 05:20:20;;;;;;;5.68;2.90;;;;;;;;;;5008832;28;20029;-66
2020/12/17 05:22:46;;;;;;;5.18;2.13;;;;;;;;;;5010104;28;20021;-66
2020/12/17 05:25:12;;;;;;;8.77;3.05;;;;;;;;;;5010925;28;20026;-66
2020/12/17 05:27:37;;;;;;;8.20;2.65;;;;;;;;;;5010419;28;20475;-66
2020/12/17 05:30:04;;;;;;;6.27;3.80;;;;;;;;;;5009145;28;20028;-66
2020/12/17 05:32:29;;;;;;;4.20;2.00;;;;;;;;;;5009735;28;20260;-66
2020/12/17 05:34:54;;;;;;;7.60;3.90;;;;;;;;;;5010375;28;20048;-67
2020/12/17 05:37:22;;;;;;;15.15;2.45;;;;;;;;;;5010447;28;20292;-66
2020/12/17 05:39:47;;;;;;;14.07;4.28;;;;;;;;;;5009628;28;20028;-66
2020/12/17 05:42:13;;;;;;;5.53;3.00;;;;;;;;;;5010050;28;20106;-66
2020/12/17 05:44:38;;;;;;;8.88;2.75;;;;;;;;;;5009548;28;20036;-66
2020/12/17 05:47:03;;;;;;;5.18;2.50;;;;;;;;;;5010367;28;20030;-66
2020/12/17 05:49:29;;;;;;;7.73;3.83;;;;;;;;;;5009681;28;20057;-65
2020/12/17 05:52:17;;;;;;;5.38;3.33;;;;;;;;;;5014795;28;20280;-65
2020/12/17 05:54:54;;;;;;;4.10;2.25;;;;;;;;;;5010895;28;20129;-67
2020/12/17 05:57:19;;;;;;;9.93;3.28;;;;;;;;;;5005581;28;20018;-66
2020/12/17 06:00:11;;;;;;;7.72;4.28;;;;;;;;;;5010795;28;20076;-67
2020/12/17 06:02:36;;;;;;;5.50;3.08;;;;;;;;;;5006928;28;20517;-66
2020/12/17 06:05:08;;;;;;;9.00;3.85;;;;;;;;;;5010145;28;20105;-66
2020/12/17 06:07:39;;;;;;;7.63;3.03;;;;;;;;;;5015033;28;20037;-66
2020/12/17 06:10:06;;;;;;;7.90;4.20;;;;;;;;;;5006975;28;20372;-66
2020/12/17 06:12:33;;;;;;;11.23;3.72;;;;;;;;;;5009505;28;20022;-66
2020/12/17 06:14:59;;;;;;;7.82;3.05;;;;;;;;;;5009733;28;20026;-65
2020/12/17 06:17:25;;;;;;;2.85;1.42;;;;;;;;;;5014278;28;20030;-67
2020/12/17 06:19:50;;;;;;;7.95;4.13;;;;;;;;;;5009426;28;20036;-66
2020/12/17 06:22:16;;;;;;;4.57;2.92;;;;;;;;;;5009920;28;20120;-66
2020/12/17 06:24:42;;;;;;;6.28;3.22;;;;;;;;;;5009642;28;20088;-68
2020/12/17 06:27:08;;;;;;;8.48;2.67;;;;;;;;;;5010878;28;20018;-67
2020/12/17 06:29:36;;;;;;;4.18;2.60;;;;;;;;;;5008970;28;20072;-66
2020/12/17 06:32:15;;;;;;;9.80;3.33;;;;;;;;;;5013970;28;20105;-67
2020/12/17 06:34:40;;;;;;;12.07;4.15;;;;;;;;;;5005497;28;20506;-67
2020/12/17 06:37:08;;;;;;;10.40;4.70;;;;;;;;;;4992497;28;20036;-67
2020/12/17 06:39:33;;;;;;;10.65;3.90;;;;;;;;;;5008988;28;20049;-66
2020/12/17 06:41:58;;;;;;;10.10;3.45;;;;;;;;;;5010601;28;20504;-67
2020/12/17 06:44:24;;;;;;;16.30;4.55;;;;;;;;;;5013913;28;20503;-67
2020/12/17 06:46:53;;;;;;;4.38;2.60;;;;;;;;;;4994771;28;20076;-67
2020/12/17 06:49:22;;;;;;;8.63;3.72;;;;;;;;;;5009267;28;20084;-67
2020/12/17 06:51:47;;;;;;;9.88;4.88;;;;;;;;;;5013020;28;20029;-67
2020/12/17 06:54:15;;;;;;;8.48;3.38;;;;;;;;;;5013572;28;20018;-67
2020/12/17 06:57:00;;;;;;;11.52;3.42;;;;;;;;;;5013259;28;20033;-67
2020/12/17 06:59:25;;;;;;;5.78;2.38;;;;;;;;;;5010031;28;20026;-66
2020/12/17 07:01:50;;;;;;;12.00;5.13;;;;;;;;;;5013238;28;20029;-67
2020/12/17 07:04:34;;;;;;;17.48;5.43;;;;;;;;;;5013424;28;20022;-67
2020/12/17 07:07:09;;;;;;;12.27;6.47;;;;;;;;;;5013122;28;20257;-67
2020/12/17 07:09:34;;;;;;;11.18;6.63;;;;;;;;;;5012728;28;20022;-67
2020/12/17 07:11:59;;;;;;;17.20;5.87;;;;;;;;;;5013280;28;20022;-66
2020/12/17 07:14:25;;;;;;;12.48;5.90;;;;;;;;;;5013032;28;20762;-67
2020/12/17 07:17:00;;;;;;;14.27;7.10;;;;;;;;;;5013193;28;20022;-67
2020/12/17 07:19:30;;;;;;;11.30;4.72;;;;;;;;;;5011281;28;20021;-67
2020/12/17 07:21:59;;;;;;;12.93;6.07;;;;;;;;;;5013195;28;20126;-67
2020/12/17 07:24:30;;;;;;;16.15;7.22;;;;;;;;;;5012467;28;20026;-67
2020/12/17 07:26:58;;;;;;;15.95;6.93;;;;;;;;;;5012675;28;20022;-67
2020/12/17 07:29:30;;;;;;;15.13;7.55;;;;;;;;;;5012364;28;20020;-67
2020/12/17 07:31:56;;;;;;;12.38;6.53;;;;;;;;;;4995320;28;20021;-67
2020/12/17 07:34:21;;;;;;;12.73;6.35;;;;;;;;;;5012910;28;20025;-67
2020/12/17 07:36:47;;;;;;;18.00;6.85;;;;;;;;;;5012792;28;20116;-67
2020/12/17 07:39:12;;;;;;;16.60;8.25;;;;;;;;;;5012088;28;20029;-67
2020/12/17 07:41:37;;;;;;;15.05;7.28;;;;;;;;;;5012999;28;20057;-67
2020/12/17 07:44:03;;;;;;;16.13;8.48;;;;;;;;;;5012865;28;20030;-67
2020/12/17 07:46:40;;;;;;;19.42;8.98;;;;;;;;;;5012036;28;20018;-67
2020/12/17 07:49:22;;;;;;;15.80;8.27;;;;;;;;;;5012463;28;20018;-67
2020/12/17 07:51:47;;;;;;;18.00;8.50;;;;;;;;;;5053546;22;20525;-67
2020/12/17 07:54:13;;;;;;;18.23;8.82;;;;;;;;;;5034433;28;20028;-67
2020/12/17 07:56:39;;;;;;;17.27;9.30;;;;;;;;;;5044484;28;20060;-67
2020/12/17 07:59:05;;;;;;;25.17;9.05;;;;;;;;;;5043756;28;20562;-67
2020/12/17 08:01:30;;;;;;;21.63;8.40;;;;;;;;;;5041832;28;20020;-67
2020/12/17 08:03:55;;;;;;;19.15;9.00;;;;;;;;;;5031751;28;20033;-67
2020/12/17 08:06:22;;;;;;;14.40;8.40;;;;;;;;;;5033433;28;20393;-68
2020/12/17 08:08:47;;;;;;;15.52;9.10;;;;;;;;;;5044136;28;20503;-66
2020/12/17 08:11:12;;;;;;;16.88;7.95;;;;;;;;;;5042196;28;20028;-67
2020/12/17 08:13:38;;;;;;;19.67;10.95;;;;;;;;;;5033228;28;20072;-67
2020/12/17 08:16:04;;;;;;;12.23;6.47;;;;;;;;;;5038698;28;20048;-67
2020/12/17 08:18:31;;;;;;;14.15;6.75;;;;;;;;;;5048011;28;20024;-65
2020/12/17 08:21:00;;;;;;;5.65;3.83;;;;;;;;;;5041192;28;20479;-67
2020/12/17 08:23:27;;;;;;;9.18;5.63;;;;;;;;;;5032912;28;20026;-68
2020/12/17 08:25:52;;;;;;;13.88;7.93;;;;;;;;;;5036255;28;20028;-67
2020/12/17 08:28:18;;;;;;;12.80;6.28;;;;;;;;;;5032594;28;20017;-67
2020/12/17 08:30:43;;;;;;;12.55;5.65;;;;;;;;;;5031671;28;20021;-67
2020/12/17 08:33:09;;;;;;;10.70;4.60;;;;;;;;;;5032296;28;20022;-68
2020/12/17 08:35:34;;;;;;;11.75;4.13;;;;;;;;;;5031634;28;20283;-68
2020/12/17 08:37:59;;;;;;;11.40;4.97;;;;;;;;;;5031829;28;20021;-67
2020/12/17 08:40:26;;;;;;;9.20;4.30;;;;;;;;;;5031984;28;20031;-68
2020/12/17 08:42:54;;;;;;;6.50;3.25;;;;;;;;;;5031761;28;20252;-68
2020/12/17 08:45:20;;;;;;;8.77;4.18;;;;;;;;;;5032006;28;20196;-68
2020/12/17 08:47:49;;;;;;;6.32;3.35;;;;;;;;;;5031708;28;20109;-68
2020/12/17 08:50:14;;;;;;;6.57;3.03;;;;;;;;;;5031272;28;20638;-68
2020/12/17 08:52:40;;;;;;;5.75;3.42;;;;;;;;;;5031331;28;20025;-67
2020/12/17 08:55:07;;;;;;;6.85;3.55;;;;;;;;;;5031540;28;20017;-67
2020/12/17 08:57:32;;;;;;;8.50;3.33;;;;;;;;;;5031385;28;20021;-67
2020/12/17 08:59:57;;;;;;;12.75;3.90;;;;;;;;;;5031180;28;20477;-67
2020/12/17 09:02:23;;;;;;;5.15;2.92;;;;;;;;;;5031631;28;20071;-68
2020/12/17 09:04:55;;;;;;;6.85;4.00;;;;;;;;;;5030920;28;20381;-68
2020/12/17 09:07:27;;;;;;;6.22;3.03;;;;;;;;;;5030541;28;20092;-67
2020/12/17 09:09:52;;;;;;;6.72;3.33;;;;;;;;;;5030999;28;20529;-67
2020/12/17 09:12:28;;;;;;;9.15;3.63;;;;;;;;;;5031605;28;20100;-68
2020/12/17 09:14:53;;;;;;;9.68;4.30;;;;;;;;;;5031368;28;20028;-68
2020/12/17 09:17:19;;;;;;;9.32;4.03;;;;;;;;;;5013720;28;20022;-68
2020/12/17 09:19:45;;;;;;;8.20;4.37;;;;;;;;;;5031206;28;20480;-68
2020/12/17 09:22:10;;;;;;;7.10;4.30;;;;;;;;;;5031007;28;20704;-67
2020/12/17 09:24:36;;;;;;;11.57;4.88;;;;;;;;;;5030648;28;20057;-68
2020/12/17 09:27:14;;;;;;;11.10;6.03;;;;;;;;;;5031192;28;20025;-67
2020/12/17 09:29:39;;;;;;;13.98;4.43;;;;;;;;;;5031194;28;20097;-67
2020/12/17 09:32:16;;;;;;;11.40;4.43;;;;;;;;;;5030966;28;20101;-68
2020/12/17 09:34:41;;;;;;;11.85;5.50;;;;;;;;;;5011112;28;20701;-67
2020/12/17 09:37:10;;;;;;;10.77;5.07;;;;;;;;;;5011280;28;20060;-67
2020/12/17 09:39:41;;;;;;;8.88;4.47;;;;;;;;;;5010560;28;20295;-67
2020/12/17 09:42:06;;;;;;;11.95;5.47;;;;;;;;;;5011501;28;20112;-68
2020/12/17 09:44:33;;;;;;;12.30;4.03;;;;;;;;;;5010977;28;20108;-67
2020/12/17 09:46:59;;;;;;;7.28;4.50;;;;;;;;;;5019624;28;20017;-68
2020/12/17 09:49:25;;;;;;;11.02;4.47;;;;;;;;;;5030515;28;20021;-68
2020/12/17 09:52:06;;;;;;;15.07;5.95;;;;;;;;;;5030515;28;20026;-68
2020/12/17 09:54:31;;;;;;;;;;;;;;;;;;5031093;28;20071;-67
2020/12/17 09:57:04;;;;;;;12.60;4.15;;;;;;;;;;5030638;28;20368;-68
2020/12/17 09:59:29;;;;;;;18.08;5.00;;;;;;;;;;5030421;28;20022;-68
2020/12/17 10:01:58;;;;;;;7.72;3.55;;;;;;;;;;5030212;28;20083;-68
2020/12/17 10:04:23;;;;;;;5.78;3.47;;;;;;;;;;5030635;28;20018;-68
2020/12/17 10:06:48;;;;;;;8.57;3.70;;;;;;;;;;5030733;28;20040;-67
2020/12/17 10:09:13;;;;;;;11.88;2.80;;;;;;;;;;5030459;28;20024;-68
2020/12/17 10:11:44;;;;;;;6.27;3.67;;;;;;;;;;5030132;28;20021;-68
2020/12/17 10:14:09;;;;;;;3.78;2.40;;;;;;;;;;5036347;28;20420;-68
2020/12/17 10:16:35;;;;;;;7.77;2.63;;;;;;;;;;5045882;28;20108;-67
2020/12/17 10:19:00;;;;;;;3.47;2.43;;;;;;;;;;5047015;28;20278;-68
2020/12/17 10:21:25;;;;;;;2.83;1.10;;;;;;;;;;5047122;28;20328;-68
2020/12/17 10:23:50;;;;;;;3.37;1.50;;;;;;;;;;5034864;28;20291;-68
2020/12/17 10:26:15;;;;;;;4.88;1.90;;;;;;;;;;5046758;28;20775;-67
2020/12/17 10:28:41;;;;;;;2.40;1.70;;;;;;;;;;5024420;28;20022;-68
2020/12/17 10:31:06;;;;;;;4.67;1.37;;;;;;;;;;5034097;28;20115;-67
2020/12/17 10:33:31;;;;;;;5.20;1.63;;;;;;;;;;5033975;28;20306;-67
2020/12/17 10:35:56;;;;;;;6.30;1.45;;;;;;;;;;5033978;28;20275;-68
2020/12/17 10:38:21;;;;;;;3.22;1.40;;;;;;;;;;5034065;28;20256;-67
2020/12/17 10:40:46;;;;;;;3.33;1.67;;;;;;;;;;5041781;28;20021;-68
2020/12/17 10:43:12;;;;;;;2.97;1.30;;;;;;;;;;5046135;28;20288;-68
2020/12/17 10:45:37;;;;;;;3.25;1.05;;;;;;;;;;5040175;28;20279;-68
2020/12/17 10:48:02;;;;;;;6.70;1.83;;;;;;;;;;5040935;28;20021;-68
2020/12/17 10:50:27;;;;;;;6.93;1.53;;;;;;;;;;5032947;28;20748;-68
2020/12/17 10:52:52;;;;;;;4.10;1.30;;;;;;;;;;5034252;28;20256;-68
2020/12/17 10:55:17;;;;;;;5.30;1.20;;;;;;;;;;5033695;28;20725;-68
2020/12/17 10:57:43;;;;;;;4.10;1.63;;;;;;;;;;5033440;28;20264;-68
2020/12/17 11:00:08;;;;;;;2.30;1.08;;;;;;;;;;5033510;28;20788;-68
2020/12/17 11:02:33;;;;;;;5.82;1.50;;;;;;;;;;5015946;28;20048;-68
2020/12/17 11:04:58;;;;;;;3.70;1.40;;;;;;;;;;5033794;28;20144;-67
2020/12/17 11:07:23;;;;;;;5.93;1.67;;;;;;;;;;5015868;28;20028;-68
2020/12/17 11:09:49;;;;;;;2.33;1.17;;;;;;;;;;5033188;28;20402;-68
2020/12/17 11:12:14;;;;;;;7.30;1.40;;;;;;;;;;5033688;28;20263;-68
2020/12/17 11:14:39;;;;;;;2.37;0.73;;;;;;;;;;5033466;28;20264;-68
2020/12/17 11:17:04;;;;;;;1.08;0.45;;;;;;;;;;5033660;28;20283;-68
2020/12/17 11:19:29;;;;;;;1.77;1.13;;;;;;;;;;5049285;28;20032;-68
2020/12/17 11:21:57;;;;;;;4.32;1.45;;;;;;;;;;5053386;28;20303;-68
2020/12/17 11:24:23;;;;;;;4.25;1.13;;;;;;;;;;5015573;28;20025;-67
2020/12/17 11:26:48;;;;;;;4.63;1.55;;;;;;;;;;5033141;28;20025;-68
2020/12/17 11:29:14;;;;;;;6.70;1.47;;;;;;;;;;5032350;28;20021;-69
2020/12/17 11:31:43;;;;;;;5.47;1.43;;;;;;;;;;5033259;28;20288;-68
2020/12/17 11:34:08;;;;;;;4.75;1.02;;;;;;;;;;5033183;28;20268;-68
2020/12/17 11:36:33;;;;;;;6.50;2.27;;;;;;;;;;5032814;28;20067;-68
2020/12/17 11:38:58;;;;;;;6.50;1.80;;;;;;;;;;5032728;28;20790;-68
2020/12/17 11:41:24;;;;;;;4.93;1.40;;;;;;;;;;5032755;28;20318;-68
2020/12/17 11:43:49;;;;;;;8.68;1.98;;;;;;;;;;5033054;28;20379;-68
2020/12/17 11:46:16;;;;;;;4.32;1.60;;;;;;;;;;5032900;28;20096;-68
2020/12/17 11:48:42;;;;;;;2.95;1.30;;;;;;;;;;5040132;28;20112;-67
2020/12/17 11:51:07;;;;;;;3.00;1.30;;;;;;;;;;5034903;28;20459;-68
2020/12/17 11:53:32;;;;;;;6.33;1.20;;;;;;;;;;5040918;28;20268;-68
2020/12/17 11:55:58;;;;;;;5.70;1.43;;;;;;;;;;5047290;28;20740;-68
2020/12/17 11:58:23;;;;;;;7.13;1.38;;;;;;;;;;5033892;28;20260;-68
2020/12/17 12:00:49;;;;;;;9.27;1.65;;;;;;;;;;5044721;28;20020;-68
2020/12/17 12:03:14;;;;;;;5.43;1.67;;;;;;;;;;5041124;28;20060;-68
2020/12/17 12:05:39;;;;;;;12.15;2.25;;;;;;;;;;5035057;28;20586;-68
2020/12/17 12:08:04;;;;;;;2.20;0.50;;;;;;;;;;5037964;28;20025;-68
2020/12/17 12:10:30;;;;;;;2.40;0.82;;;;;;;;;;5040566;28;20274;-69
2020/12/17 12:12:55;;;;;;;2.50;1.25;;;;;;;;;;5042150;28;20029;-68
2020/12/17 12:15:21;;;;;;;2.50;0.93;;;;;;;;;;5051005;28;20028;-67
2020/12/17 12:17:47;;;;;;;4.20;1.10;;;;;;;;;;5036327;28;20044;-68
2020/12/17 12:20:12;;;;;;;3.85;0.80;;;;;;;;;;5035727;28;20334;-68
2020/12/17 12:22:37;;;;;;;3.55;1.10;;;;;;;;;;5044616;28;20063;-69
2020/12/17 12:25:04;;;;;;;5.97;1.30;;;;;;;;;;5040938;28;20110;-69
2020/12/17 12:27:29;;;;;;;4.18;1.58;;;;;;;;;;5041540;28;20263;-69
2020/12/17 12:29:54;;;;;;;1.77;0.52;;;;;;;;;;5032978;28;20436;-68
2020/12/17 12:32:19;;;;;;;4.00;1.17;;;;;;;;;;5050591;28;20044;-67
2020/12/17 12:34:44;;;;;;;5.57;2.00;;;;;;;;;;5032459;28;20056;-68
2020/12/17 12:37:09;;;;;;;3.60;1.17;;;;;;;;;;5034881;28;20266;-68
2020/12/17 12:39:35;;;;;;;6.30;1.43;;;;;;;;;;5044202;28;21021;-68
2020/12/17 12:42:00;;;;;;;7.40;1.83;;;;;;;;;;5038868;28;20304;-68
2020/12/17 12:44:25;;;;;;;5.07;1.60;;;;;;;;;;5021726;28;20021;-68
2020/12/17 12:46:50;;;;;;;5.20;1.20;;;;;;;;;;5044129;28;20310;-69
2020/12/17 12:49:16;;;;;;;6.90;1.37;;;;;;;;;;5034165;28;20103;-68
2020/12/17 12:51:41;;;;;;;3.92;1.50;;;;;;;;;;5048052;28;20752;-68
2020/12/17 12:54:06;;;;;;;4.17;1.17;;;;;;;;;;5032423;28;20036;-67
2020/12/17 12:56:31;;;;;;;4.57;1.50;;;;;;;;;;5049791;28;20310;-68
2020/12/17 12:58:57;;;;;;;6.68;1.63;;;;;;;;;;5038122;28;20279;-68
2020/12/17 13:01:22;;;;;;;9.80;1.85;;;;;;;;;;5037199;28;20748;-69
2020/12/17 13:03:47;;;;;;;7.78;1.88;;;;;;;;;;5031333;28;20021;-69
2020/12/17 13:06:21;;;;;;;4.43;1.77;;;;;;;;;;5042688;28;20027;-66
2020/12/17 13:08:48;;;;;;;8.38;2.28;;;;;;;;;;5036712;28;20044;-67
2020/12/17 13:11:14;;;;;;;9.93;1.60;;;;;;;;;;5044063;28;20393;-67
2020/12/17 13:13:39;;;;;;;9.90;1.98;;;;;;;;;;5049801;28;20063;-68
2020/12/17 13:16:04;;;;;;;10.10;1.75;;;;;;;;;;5035547;28;20430;-68
2020/12/17 13:18:29;;;;;;;10.17;1.93;;;;;;;;;;5037130;28;20489;-67
2020/12/17 13:20:54;;;;;;;5.60;2.40;;;;;;;;;;5041191;28;20267;-69
2020/12/17 13:23:20;;;;;;;7.30;1.83;;;;;;;;;;5044801;28;20773;-67
2020/12/17 13:25:45;;;;;;;12.50;2.30;;;;;;;;;;5030977;28;20256;-69
2020/12/17 13:28:12;;;;;;;5.60;1.53;;;;;;;;;;5031306;28;20711;-67
2020/12/17 13:30:37;;;;;;;10.73;2.47;;;;;;;;;;5029865;28;20361;-68
2020/12/17 13:33:02;;;;;;;8.03;2.50;;;;;;;;;;5031320;28;20108;-67
2020/12/17 13:35:27;;;;;;;7.30;1.97;;;;;;;;;;5030469;28;20756;-67
2020/12/17 13:37:53;;;;;;;6.87;1.83;;;;;;;;;;5030850;28;20382;-68
2020/12/17 13:40:18;;;;;;;4.53;1.53;;;;;;;;;;5030313;28;20260;-68
2020/12/17 13:42:43;;;;;;;4.82;2.28;;;;;;;;;;5030573;28;20727;-68
2020/12/17 13:45:08;;;;;;;5.28;1.48;;;;;;;;;;5030456;28;20284;-68
2020/12/17 13:47:33;;;;;;;6.03;1.33;;;;;;;;;;5030576;28;20063;-67
2020/12/17 13:49:58;;;;;;;8.18;1.70;;;;;;;;;;5056005;22;20267;-69
2020/12/17 13:52:24;;;;;;;2.33;1.15;;;;;;;;;;5049575;28;20025;-67
2020/12/17 13:54:49;;;;;;;5.95;1.50;;;;;;;;;;5032576;28;20351;-67
2020/12/17 13:57:14;;;;;;;3.60;1.20;;;;;;;;;;5050507;28;20035;-67
2020/12/17 13:59:39;;;;;;;7.22;1.35;;;;;;;;;;5049563;28;20347;-67
2020/12/17 14:02:05;;;;;;;2.77;1.07;;;;;;;;;;5049937;28;20255;-67
2020/12/17 14:04:30;;;;;;;3.17;1.00;;;;;;;;;;5049417;28;20335;-68
2020/12/17 14:06:59;;;;;;;11.33;1.10;;;;;;;;;;5050299;28;20399;-68
2020/12/17 14:09:24;;;;;;;6.18;1.67;;;;;;;;;;5050083;28;20735;-68
2020/12/17 14:11:56;;;;;;;4.78;1.10;;;;;;;;;;5032573;28;20096;-68
2020/12/17 14:14:21;;;;;;;10.27;1.50;;;;;;;;;;5031057;28;20124;-68
2020/12/17 14:16:47;;;;;;;7.60;2.35;;;;;;;;;;5036038;28;20064;-68
2020/12/17 14:19:12;;;;;;;4.75;1.40;;;;;;;;;;5019493;28;20025;-68
2020/12/17 14:21:37;;;;;;;6.43;1.80;;;;;;;;;;5050315;28;20025;-68
2020/12/17 14:24:02;;;;;;;4.23;0.93;;;;;;;;;;5032355;28;20941;-68
2020/12/17 14:26:28;;;;;;;7.75;1.17;;;;;;;;;;5049927;28;20270;-68
2020/12/17 14:28:53;;;;;;;8.73;1.23;;;;;;;;;;5049909;28;20028;-68
2020/12/17 14:31:23;;;;;;;5.82;1.52;;;;;;;;;;5049812;28;20070;-68
2020/12/17 14:33:48;;;;;;;5.97;1.70;;;;;;;;;;5050268;28;20029;-68
2020/12/17 14:36:13;;;;;;;10.50;3.53;;;;;;;;;;5032131;28;20025;-68